Hallettsville, Texas
Current Conditions -  °F | °C
As of 3:15 PM on Saturday 22 Nov 2014 (Local Time) from K66R Reporting Station
Thunderstorm Thunderstorm  
Wind Chill: 66°   Ceiling: 500
Heat Index: 66°   Visibility: 5mi
Dew Point: 65°   Wind: 12mph
Humidity: 98%   Direction: 110°ESE
Pressure: 29.78"   Gusts: 17mph
Location:  29.44°N, 96.94°W
Report Text: K66R 222115Z AUTO 11010G15KT 5SM -VCTSRA BKN005 OVC010 19/19 A2978 RMK AO2 LTG DSNT ALQS P0004 T01880185
Loading
Personal Weather Stations






























Interactive Weather Map New forecast layout! Learn more

10-Day Weather Forecast

Advertisements
Track Severe Weather on mobile